createdAt,value
2023-01-09T00:00:00.906Z,2.10
2023-01-09T00:01:36.449Z,1.85
2023-01-09T00:03:08.073Z,1.70
2023-01-09T00:04:39.947Z,1.73
2023-01-09T00:06:11.734Z,1.75
2023-01-09T00:07:43.429Z,1.58
2023-01-09T00:09:15.094Z,1.40
2023-01-09T00:10:48.870Z,1.52
2023-01-09T00:12:20.562Z,1.42
2023-01-09T00:13:52.310Z,1.50
2023-01-09T00:15:23.953Z,1.38
2023-01-09T00:16:57.322Z,1.20
2023-01-09T00:18:29.028Z,1.38
2023-01-09T00:20:00.723Z,1.05
2023-01-09T00:21:32.500Z,1.23
2023-01-09T00:23:04.345Z,1.00
2023-01-09T00:24:36.419Z,1.08
2023-01-09T00:26:10.391Z,1.25
2023-01-09T00:27:42.036Z,1.20
2023-01-09T00:29:13.666Z,1.35
2023-01-09T00:30:45.396Z,1.40
2023-01-09T00:32:20.291Z,1.42
2023-01-09T00:33:56.483Z,1.10
2023-01-09T00:35:28.884Z,1.40
2023-01-09T00:37:00.619Z,1.27
2023-01-09T00:38:32.381Z,1.17
2023-01-09T00:40:04.464Z,1.20
2023-01-09T00:41:40.928Z,1.13
2023-01-09T00:43:12.699Z,1.27
2023-01-09T00:44:47.869Z,1.10
2023-01-09T00:46:22.842Z,1.00
2023-01-09T00:48:00.815Z,0.88
2023-01-09T00:49:36.335Z,1.30
2023-01-09T00:51:08.350Z,1.25
2023-01-09T00:52:40.842Z,1.20
2023-01-09T00:54:15.991Z,1.15
2023-01-09T00:55:47.631Z,1.40
2023-01-09T00:57:19.355Z,1.23
2023-01-09T00:58:51.983Z,1.02
2023-01-09T01:00:23.860Z,1.00
2023-01-09T01:01:56.334Z,1.10
2023-01-09T01:03:29.563Z,1.00
2023-01-09T01:05:19.850Z,1.00
2023-01-09T01:07:10.342Z,0.95
2023-01-09T01:08:42.227Z,1.00
2023-01-09T01:10:16.409Z,0.90
2023-01-09T01:11:48.054Z,0.93
2023-01-09T01:13:19.920Z,0.85
2023-01-09T01:14:52.214Z,1.40
2023-01-09T01:16:23.967Z,1.05
2023-01-09T01:17:55.683Z,0.95
2023-01-09T01:19:28.679Z,1.20
2023-01-09T01:21:00.317Z,0.88
2023-01-09T01:22:32.054Z,1.20
2023-01-09T01:24:04.308Z,1.02
2023-01-09T01:25:37.059Z,1.20
2023-01-09T01:27:08.709Z,1.40
2023-01-09T01:28:41.015Z,1.10
2023-01-09T01:30:15.238Z,1.05
2023-01-09T01:31:46.906Z,0.80
2023-01-09T01:33:18.541Z,0.90
2023-01-09T01:34:51.618Z,0.82
2023-01-09T01:36:23.320Z,0.98
2023-01-09T01:37:54.947Z,1.75
2023-01-09T01:39:26.689Z,1.30
2023-01-09T01:40:58.848Z,1.05
2023-01-09T01:42:30.585Z,1.10
2023-01-09T01:44:04.709Z,1.23
2023-01-09T01:45:36.346Z,1.35
2023-01-09T01:47:08.051Z,1.20
2023-01-09T01:48:39.722Z,1.20
2023-01-09T01:50:19.418Z,1.20
2023-01-09T01:51:53.505Z,1.27
2023-01-09T01:53:29.686Z,1.48
2023-01-09T01:55:01.947Z,1.30
2023-01-09T01:56:37.939Z,1.60
2023-01-09T01:58:13.411Z,1.40
2023-01-09T01:59:52.282Z,1.20
2023-01-09T02:01:25.703Z,1.33
2023-01-09T02:02:59.059Z,1.45
2023-01-09T02:04:34.208Z,1.50
2023-01-09T02:06:08.453Z,1.20
2023-01-09T02:07:40.102Z,1.15
2023-01-09T02:09:15.183Z,1.45
2023-01-09T02:10:47.817Z,1.30
2023-01-09T02:12:25.355Z,1.30
2023-01-09T02:13:57.735Z,1.35
2023-01-09T02:15:36.491Z,1.35
2023-01-09T02:17:22.169Z,1.50
2023-01-09T02:19:04.581Z,1.38
2023-01-09T02:20:43.239Z,1.25
2023-01-09T02:22:23.767Z,1.40
2023-01-09T02:24:41.253Z,1.40
2023-01-09T02:26:43.071Z,1.38
2023-01-09T02:28:36.728Z,1.80
2023-01-09T02:30:32.547Z,1.55
2023-01-09T02:32:10.771Z,1.70
2023-01-09T02:33:54.132Z,1.70
2023-01-09T02:36:10.844Z,1.73
2023-01-09T02:37:51.468Z,2.20
2023-01-09T02:39:27.845Z,2.00
2023-01-09T02:41:05.120Z,2.20
2023-01-09T02:42:40.106Z,2.08
2023-01-09T02:44:22.709Z,2.13
2023-01-09T02:45:55.771Z,2.20
2023-01-09T02:47:42.574Z,2.35
2023-01-09T02:49:16.659Z,2.22
2023-01-09T02:50:58.273Z,2.38
2023-01-09T02:52:44.465Z,1.98
2023-01-09T02:54:27.201Z,2.22
2023-01-09T02:56:11.763Z,2.20
2023-01-09T02:57:56.035Z,2.08
2023-01-09T02:59:33.839Z,2.00
2023-01-09T03:01:21.738Z,2.30
2023-01-09T03:02:58.855Z,2.22
2023-01-09T03:04:39.493Z,2.20
2023-01-09T03:06:18.954Z,2.17
2023-01-09T03:07:59.056Z,2.22
2023-01-09T03:11:07.741Z,2.10
2023-01-09T03:12:42.664Z,2.28
2023-01-09T03:14:17.715Z,2.63
2023-01-09T03:15:52.306Z,2.70
2023-01-09T03:17:29.751Z,2.42
2023-01-09T03:19:04.069Z,2.40
2023-01-09T03:20:37.255Z,2.50
2023-01-09T03:22:09.042Z,2.38
2023-01-09T03:23:48.918Z,2.30
2023-01-09T03:25:21.050Z,2.45
2023-01-09T03:26:55.058Z,2.30
2023-01-09T03:28:28.573Z,2.38
2023-01-09T03:30:00.260Z,2.58
2023-01-09T03:31:32.032Z,2.28
2023-01-09T03:33:05.011Z,2.25
2023-01-09T03:34:36.761Z,2.50
2023-01-09T03:36:09.862Z,2.60
2023-01-09T03:37:41.523Z,2.50
2023-01-09T03:39:13.216Z,2.50
2023-01-09T03:40:44.939Z,2.92
2023-01-09T03:42:16.566Z,2.50
2023-01-09T03:43:48.458Z,2.45
2023-01-09T03:45:20.164Z,2.58
2023-01-09T03:46:51.859Z,2.40
2023-01-09T03:48:24.945Z,2.50
2023-01-09T03:49:56.633Z,2.40
2023-01-09T03:51:28.337Z,2.50
2023-01-09T03:53:00.108Z,2.50
2023-01-09T03:54:31.723Z,2.60
2023-01-09T03:56:03.626Z,2.90
2023-01-09T03:57:35.339Z,2.60
2023-01-09T03:59:06.973Z,2.50
2023-01-09T04:00:40.217Z,2.17
2023-01-09T04:02:12.015Z,2.50
2023-01-09T04:03:45.131Z,2.60
2023-01-09T04:05:17.058Z,2.60
2023-01-09T04:06:48.712Z,2.20
2023-01-09T04:08:20.343Z,2.33
2023-01-09T04:09:51.961Z,2.70
2023-01-09T04:11:23.672Z,2.20
2023-01-09T04:12:55.364Z,2.92
2023-01-09T04:14:27.036Z,2.67
2023-01-09T04:15:58.759Z,2.47
2023-01-09T04:17:30.444Z,2.72
2023-01-09T04:19:03.596Z,2.55
2023-01-09T04:20:35.329Z,2.60
2023-01-09T04:22:06.953Z,2.58
2023-01-09T04:23:38.631Z,2.58
2023-01-09T04:25:11.009Z,2.47
2023-01-09T04:26:43.244Z,2.28
2023-01-09T04:28:15.004Z,2.40
2023-01-09T04:29:46.645Z,2.70
2023-01-09T04:31:18.329Z,2.42
2023-01-09T04:32:50.922Z,2.75
2023-01-09T04:34:25.596Z,2.60
2023-01-09T04:35:57.251Z,2.45
2023-01-09T04:37:28.901Z,2.22
2023-01-09T04:39:00.676Z,2.47
2023-01-09T04:40:32.376Z,2.53
2023-01-09T04:42:04.141Z,2.17
2023-01-09T04:43:35.829Z,2.35
2023-01-09T04:45:10.161Z,2.03
2023-01-09T04:46:41.874Z,2.10
2023-01-09T04:48:13.662Z,2.17
2023-01-09T04:49:46.680Z,2.00
2023-01-09T04:51:18.323Z,1.95
2023-01-09T04:52:49.982Z,2.40
2023-01-09T04:54:22.024Z,2.40
2023-01-09T04:55:53.755Z,2.20
2023-01-09T04:57:25.479Z,2.13
2023-01-09T04:58:57.122Z,2.53
2023-01-09T05:00:28.780Z,2.40
2023-01-09T05:02:00.927Z,1.60
2023-01-09T05:03:32.645Z,2.20
2023-01-09T05:05:08.569Z,2.05
2023-01-09T05:06:42.122Z,2.10
2023-01-09T05:08:13.741Z,2.00
2023-01-09T05:09:45.437Z,2.00
2023-01-09T05:11:17.065Z,2.35
2023-01-09T05:12:48.741Z,2.28
2023-01-09T05:14:20.601Z,2.45
2023-01-09T05:15:52.285Z,2.15
2023-01-09T05:17:24.013Z,2.15
2023-01-09T05:18:57.179Z,1.55
2023-01-09T05:20:30.179Z,2.00
2023-01-09T05:22:02.019Z,2.28
2023-01-09T05:23:33.732Z,2.03
2023-01-09T05:25:06.364Z,2.05
2023-01-09T05:26:38.014Z,3.05
2023-01-09T05:28:09.871Z,2.10
2023-01-09T05:29:41.959Z,2.15
2023-01-09T05:31:13.721Z,2.00
2023-01-09T05:32:45.714Z,2.13
2023-01-09T05:34:17.335Z,2.38
2023-01-09T05:35:50.452Z,2.22
2023-01-09T05:37:22.088Z,2.25
2023-01-09T05:38:53.887Z,2.33
2023-01-09T05:40:29.282Z,2.22
2023-01-09T05:42:04.285Z,2.30
2023-01-09T05:43:35.992Z,2.05
2023-01-09T05:45:09.072Z,2.50
2023-01-09T05:46:40.750Z,2.40
2023-01-09T05:48:12.554Z,2.58
2023-01-09T05:49:44.556Z,2.50
2023-01-09T05:51:17.922Z,2.40
2023-01-09T05:52:49.649Z,2.22
2023-01-09T05:54:21.360Z,2.38
2023-01-09T05:55:53.158Z,2.50
2023-01-09T05:57:24.941Z,2.30
2023-01-09T05:58:56.697Z,2.50
2023-01-09T06:00:28.443Z,2.40
2023-01-09T06:02:00.225Z,2.53
2023-01-09T06:03:32.085Z,2.33
2023-01-09T06:05:04.085Z,2.90
2023-01-09T06:06:37.312Z,2.38
2023-01-09T06:08:09.042Z,2.40
2023-01-09T06:09:40.751Z,2.50
2023-01-09T06:11:12.402Z,2.58
2023-01-09T06:12:48.302Z,2.35
2023-01-09T06:14:20.433Z,2.40
2023-01-09T06:15:52.191Z,2.50
2023-01-09T06:17:23.937Z,3.22
2023-01-09T06:18:55.710Z,2.80
2023-01-09T06:20:27.399Z,2.95
2023-01-09T06:22:00.504Z,2.60
2023-01-09T06:23:32.145Z,2.90
2023-01-09T06:25:04.669Z,3.40
2023-01-09T06:26:36.453Z,2.60
2023-01-09T06:28:08.194Z,3.33
2023-01-09T06:29:39.963Z,2.38
2023-01-09T06:31:11.743Z,2.50
2023-01-09T06:32:45.728Z,2.10
2023-01-09T06:34:17.453Z,2.85
2023-01-09T06:35:49.121Z,2.70
2023-01-09T06:37:22.117Z,2.45
2023-01-09T06:38:53.935Z,2.70
2023-01-09T06:40:25.730Z,2.20
2023-01-09T06:41:57.946Z,2.75
2023-01-09T06:43:31.402Z,2.40
2023-01-09T06:45:03.565Z,2.90
2023-01-09T06:46:35.294Z,2.80
2023-01-09T06:48:07.337Z,3.42
2023-01-09T06:49:39.289Z,2.55
2023-01-09T06:51:11.013Z,2.65
2023-01-09T06:52:44.127Z,2.35
2023-01-09T06:54:15.876Z,2.47
2023-01-09T06:55:47.661Z,2.65
2023-01-09T06:57:19.338Z,2.50
2023-01-09T06:58:51.037Z,2.65
2023-01-09T07:00:22.904Z,2.45
2023-01-09T07:01:54.669Z,2.58
2023-01-09T07:03:26.410Z,2.70
2023-01-09T07:04:58.110Z,2.22
2023-01-09T07:06:29.815Z,2.20
2023-01-09T07:08:03.190Z,2.85
2023-01-09T07:09:34.925Z,2.47
2023-01-09T07:11:06.716Z,2.30
2023-01-09T07:12:38.613Z,2.80
2023-01-09T07:14:10.367Z,2.38
2023-01-09T07:15:42.107Z,2.63
2023-01-09T07:17:13.977Z,2.67
2023-01-09T07:18:45.755Z,2.50
2023-01-09T07:20:18.115Z,2.20
2023-01-09T07:21:49.805Z,2.55
2023-01-09T07:23:22.904Z,2.45
2023-01-09T07:24:54.655Z,2.80
2023-01-09T07:26:26.409Z,2.53
2023-01-09T07:27:58.154Z,5.18
2023-01-09T07:29:30.817Z,2.65
2023-01-09T07:31:04.476Z,3.10
2023-01-09T07:32:38.408Z,2.97
2023-01-09T07:34:10.092Z,2.50
2023-01-09T07:35:41.802Z,2.55
2023-01-09T07:37:13.501Z,2.92
2023-01-09T07:38:46.695Z,2.50
2023-01-09T07:40:18.614Z,2.40
2023-01-09T07:41:50.354Z,2.45
2023-01-09T07:43:22.007Z,2.75
2023-01-09T07:44:53.707Z,2.58
2023-01-09T07:46:25.517Z,2.47
2023-01-09T07:47:57.270Z,2.60
2023-01-09T07:49:29.063Z,2.67
2023-01-09T07:51:00.807Z,2.80
2023-01-09T07:52:32.692Z,2.55
2023-01-09T07:54:06.295Z,2.60
2023-01-09T07:55:37.981Z,2.78
2023-01-09T07:57:09.700Z,2.60
2023-01-09T07:58:41.472Z,2.65
2023-01-09T08:00:14.284Z,2.50
2023-01-09T08:01:45.998Z,2.50
2023-01-09T08:03:17.696Z,3.00
2023-01-09T08:04:49.377Z,2.65
2023-01-09T08:06:21.171Z,2.47
2023-01-09T08:07:52.903Z,2.63
2023-01-09T08:09:25.938Z,2.85
2023-01-09T08:10:57.656Z,2.38
2023-01-09T08:12:29.411Z,2.40
2023-01-09T08:14:01.116Z,2.45
2023-01-09T08:15:33.599Z,2.70
2023-01-09T08:17:05.338Z,2.90
2023-01-09T08:18:37.052Z,2.50
2023-01-09T08:20:11.106Z,3.38
2023-01-09T08:21:42.824Z,2.60
2023-01-09T08:23:14.487Z,2.30
2023-01-09T08:24:47.776Z,2.95
2023-01-09T08:26:19.676Z,2.70
2023-01-09T08:27:51.557Z,2.47
2023-01-09T08:29:23.591Z,2.08
2023-01-09T08:30:55.576Z,2.20
2023-01-09T08:32:27.398Z,2.50
2023-01-09T08:33:59.386Z,1.92
2023-01-09T08:35:31.138Z,2.20
2023-01-09T08:37:02.906Z,3.00
2023-01-09T08:38:34.610Z,2.38
2023-01-09T08:40:10.448Z,2.38
2023-01-09T08:42:00.833Z,1.95
2023-01-09T08:43:50.925Z,2.95
2023-01-09T08:47:15.077Z,2.83
2023-01-09T08:48:48.338Z,2.70
2023-01-09T08:50:20.101Z,2.10
2023-01-09T08:51:51.834Z,2.47
2023-01-09T08:53:23.618Z,2.50
2023-01-09T08:54:55.295Z,2.70
2023-01-09T08:56:28.337Z,2.53
2023-01-09T08:58:04.492Z,2.55
2023-01-09T08:59:36.930Z,2.40
2023-01-09T09:01:08.743Z,2.97
2023-01-09T09:02:40.486Z,2.35
2023-01-09T09:04:15.628Z,2.78
2023-01-09T09:05:48.141Z,2.10
2023-01-09T09:07:27.025Z,2.50
2023-01-09T09:09:03.407Z,2.17
2023-01-09T09:10:35.105Z,2.72
2023-01-09T09:12:09.024Z,2.72
2023-01-09T09:13:40.748Z,2.50
2023-01-09T09:15:12.388Z,2.35
2023-01-09T09:16:44.087Z,2.30
2023-01-09T09:18:15.884Z,2.22
2023-01-09T09:19:56.676Z,2.38
2023-01-09T09:21:28.942Z,2.05
2023-01-09T09:23:07.913Z,2.22
2023-01-09T09:24:39.892Z,2.10
2023-01-09T09:26:11.574Z,2.80
2023-01-09T09:27:44.932Z,2.45
2023-01-09T09:29:16.755Z,1.95
2023-01-09T09:30:48.620Z,2.72
2023-01-09T09:32:20.366Z,2.30
2023-01-09T09:33:52.016Z,2.20
2023-01-09T09:35:24.555Z,2.30
2023-01-09T09:36:56.275Z,2.20
2023-01-09T09:38:28.107Z,2.30
2023-01-09T09:40:09.587Z,2.42
2023-01-09T09:42:24.518Z,1.98
2023-01-09T09:44:36.207Z,2.53
2023-01-09T09:46:20.368Z,2.05
2023-01-09T09:48:06.528Z,2.15
2023-01-09T09:49:47.562Z,2.20
2023-01-09T09:51:42.083Z,2.28
2023-01-09T09:53:21.020Z,2.03
2023-01-09T09:54:53.215Z,2.10
2023-01-09T09:56:27.275Z,1.95
2023-01-09T09:58:02.690Z,2.00
2023-01-09T09:59:39.713Z,2.38
2023-01-09T10:01:16.268Z,2.17
2023-01-09T10:02:53.492Z,2.00
2023-01-09T10:04:28.625Z,1.88
2023-01-09T10:06:02.637Z,2.30
2023-01-09T10:07:42.075Z,2.78
2023-01-09T10:09:24.894Z,2.20
2023-01-09T10:10:56.819Z,2.40
2023-01-09T10:12:30.956Z,2.20
2023-01-09T10:14:06.373Z,2.25
2023-01-09T10:15:46.348Z,2.28
2023-01-09T10:17:57.053Z,2.22
2023-01-09T10:19:42.530Z,2.40
2023-01-09T10:21:19.689Z,2.05
2023-01-09T10:23:01.310Z,2.30
2023-01-09T10:24:49.976Z,2.42
2023-01-09T10:26:28.084Z,2.30
2023-01-09T10:28:14.279Z,2.30
2023-01-09T10:29:55.951Z,2.25
2023-01-09T10:31:35.564Z,2.10
2023-01-09T10:33:20.314Z,2.83
2023-01-09T10:35:01.762Z,2.65
2023-01-09T10:36:56.616Z,2.10
2023-01-09T10:38:34.471Z,2.28
2023-01-09T10:40:18.245Z,2.00
2023-01-09T10:41:57.049Z,2.65
2023-01-09T10:43:34.960Z,2.40
2023-01-09T10:45:17.568Z,2.50
2023-01-09T10:46:54.328Z,2.10
2023-01-09T10:48:31.007Z,2.40
2023-01-09T10:50:18.304Z,2.30
2023-01-09T10:51:51.688Z,2.28
2023-01-09T10:53:27.871Z,2.20
2023-01-09T10:55:05.731Z,2.40
2023-01-09T10:56:41.908Z,2.60
2023-01-09T10:58:15.185Z,2.55
2023-01-09T10:59:46.860Z,3.15
2023-01-09T11:01:22.430Z,2.10
2023-01-09T11:02:55.500Z,2.15
2023-01-09T11:04:31.773Z,2.22
2023-01-09T11:06:05.790Z,2.25
2023-01-09T11:07:42.011Z,2.25
2023-01-09T11:09:15.136Z,2.40
2023-01-09T11:10:52.079Z,2.50
2023-01-09T11:12:25.304Z,2.72
2023-01-09T11:14:05.170Z,2.20
2023-01-09T11:15:36.940Z,2.38
2023-01-09T11:17:19.389Z,2.40
2023-01-09T11:18:54.627Z,2.30
2023-01-09T11:20:28.953Z,3.40
2023-01-09T11:22:09.845Z,2.75
2023-01-09T11:23:41.642Z,2.13
2023-01-09T11:25:15.040Z,2.65
2023-01-09T11:26:49.077Z,2.03
2023-01-09T11:28:20.945Z,2.63
2023-01-09T11:30:24.087Z,2.17
2023-01-09T11:31:58.336Z,2.08
2023-01-09T11:33:33.432Z,1.98
2023-01-09T11:35:14.032Z,2.35
2023-01-09T11:36:46.555Z,2.05
2023-01-09T11:38:18.340Z,2.08
2023-01-09T11:39:50.114Z,2.30
2023-01-09T11:41:24.636Z,1.80
2023-01-09T11:43:10.076Z,2.60
2023-01-09T11:44:45.625Z,2.30
2023-01-09T11:46:35.030Z,2.33
2023-01-09T11:48:17.011Z,2.00
2023-01-09T11:49:51.312Z,2.15
2023-01-09T11:51:26.756Z,2.15
2023-01-09T11:53:14.272Z,2.00
2023-01-09T11:54:50.274Z,2.22
2023-01-09T11:56:22.217Z,1.92
2023-01-09T11:57:53.871Z,2.00
2023-01-09T11:59:28.247Z,1.88
2023-01-09T12:01:10.193Z,2.08
2023-01-09T12:02:58.038Z,1.92
2023-01-09T12:04:35.817Z,1.80
2023-01-09T12:06:18.256Z,1.90
2023-01-09T12:08:06.868Z,1.92
2023-01-09T12:09:46.542Z,1.83
2023-01-09T12:11:32.103Z,2.10
2023-01-09T12:13:12.860Z,2.08
2023-01-09T12:14:56.908Z,1.98
2023-01-09T12:16:36.751Z,1.90
2023-01-09T12:18:25.435Z,2.45
2023-01-09T12:20:32.114Z,1.90
2023-01-09T12:22:13.490Z,2.00
2023-01-09T12:23:59.271Z,2.38
2023-01-09T12:25:44.007Z,2.22
2023-01-09T12:27:26.604Z,1.98
2023-01-09T12:29:35.713Z,1.90
2023-01-09T12:31:24.041Z,2.13
2023-01-09T12:33:11.437Z,2.40
2023-01-09T12:35:06.744Z,2.40
2023-01-09T12:36:50.324Z,2.22
2023-01-09T12:38:39.483Z,2.20
2023-01-09T12:40:30.648Z,2.20
2023-01-09T12:42:13.689Z,2.65
2023-01-09T12:43:53.664Z,1.95
2023-01-09T12:45:39.221Z,2.40
2023-01-09T12:47:37.226Z,2.58
2023-01-09T12:49:27.200Z,2.08
2023-01-09T12:51:28.346Z,2.28
2023-01-09T12:53:08.899Z,2.20
2023-01-09T12:54:45.867Z,1.92
2023-01-09T12:56:26.361Z,2.20
2023-01-09T12:58:02.187Z,2.58
2023-01-09T12:59:39.786Z,2.10
2023-01-09T13:01:17.604Z,2.22
2023-01-09T13:03:03.643Z,2.35
2023-01-09T13:04:49.194Z,2.38
2023-01-09T13:06:24.499Z,2.40
2023-01-09T13:08:02.260Z,2.28
2023-01-09T13:09:41.438Z,2.50
2023-01-09T13:11:23.469Z,2.60
2023-01-09T13:12:57.474Z,2.15
2023-01-09T13:14:44.135Z,2.55
2023-01-09T13:16:21.338Z,2.45
2023-01-09T13:17:57.534Z,2.50
2023-01-09T13:19:34.562Z,2.60
2023-01-09T13:21:07.869Z,2.60
2023-01-09T13:22:39.739Z,2.42
2023-01-09T13:24:17.883Z,2.70
2023-01-09T13:25:53.584Z,2.70
2023-01-09T13:27:31.895Z,2.45
2023-01-09T13:29:10.600Z,2.70
2023-01-09T13:31:21.130Z,2.60
2023-01-09T13:33:05.076Z,2.50
2023-01-09T13:34:38.687Z,2.40
2023-01-09T13:36:23.529Z,2.58
2023-01-09T13:37:55.567Z,3.25
2023-01-09T13:39:30.055Z,2.70
2023-01-09T13:41:26.880Z,4.00
2023-01-09T13:43:02.979Z,3.03
2023-01-09T13:44:34.891Z,3.08
2023-01-09T13:46:06.872Z,3.10
2023-01-09T13:47:38.675Z,2.70
2023-01-09T13:49:32.814Z,3.00
2023-01-09T13:51:37.312Z,2.72
2023-01-09T13:53:45.748Z,3.15
2023-01-09T13:55:30.042Z,3.42
2023-01-09T13:57:26.697Z,2.55
2023-01-09T13:59:02.948Z,2.78
2023-01-09T14:00:49.873Z,2.67
2023-01-09T14:03:04.431Z,2.60
2023-01-09T14:04:44.633Z,2.63
2023-01-09T14:06:20.006Z,2.53
2023-01-09T14:08:02.529Z,3.00
2023-01-09T14:09:37.625Z,2.50
2023-01-09T14:11:17.181Z,3.00
2023-01-09T14:12:50.576Z,2.90
2023-01-09T14:14:30.041Z,2.65
2023-01-09T14:16:05.541Z,2.65
2023-01-09T14:17:38.510Z,2.88
2023-01-09T14:19:26.889Z,2.85
2023-01-09T14:21:01.403Z,2.83
2023-01-09T14:22:45.525Z,2.90
2023-01-09T14:24:31.329Z,3.05
2023-01-09T14:26:04.894Z,2.97
2023-01-09T14:28:08.994Z,2.90
2023-01-09T14:29:44.636Z,2.40
2023-01-09T14:31:31.133Z,3.10
2023-01-09T14:33:04.158Z,2.35
2023-01-09T14:34:37.809Z,2.70
2023-01-09T14:36:14.564Z,2.72
2023-01-09T14:37:55.374Z,3.20
2023-01-09T14:39:29.893Z,2.70
2023-01-09T14:41:09.077Z,2.90
2023-01-09T14:42:42.053Z,2.65
2023-01-09T14:44:25.807Z,2.90
2023-01-09T14:46:04.988Z,2.78
2023-01-09T14:47:41.475Z,2.90
2023-01-09T14:49:20.718Z,2.83
2023-01-09T14:50:55.890Z,2.75
2023-01-09T14:52:30.780Z,2.90
2023-01-09T14:54:14.122Z,2.70
2023-01-09T14:55:51.144Z,3.17
2023-01-09T14:57:24.701Z,2.88
2023-01-09T14:59:10.572Z,3.38
2023-01-09T15:00:54.449Z,3.00
2023-01-09T15:02:31.599Z,3.20
2023-01-09T15:04:08.566Z,2.83
2023-01-09T15:05:40.365Z,3.13
2023-01-09T15:07:21.149Z,2.97
2023-01-09T15:08:56.759Z,3.00
2023-01-09T15:10:31.470Z,3.15
2023-01-09T15:12:07.963Z,2.80
2023-01-09T15:13:44.973Z,3.38
2023-01-09T15:15:18.669Z,3.25
2023-01-09T15:16:51.826Z,2.97
2023-01-09T15:18:27.718Z,3.00
2023-01-09T15:20:02.588Z,3.40
2023-01-09T15:21:34.360Z,3.47
2023-01-09T15:23:06.123Z,2.80
2023-01-09T15:24:37.896Z,3.40
2023-01-09T15:26:14.927Z,3.28
2023-01-09T15:27:47.593Z,3.47
2023-01-09T15:29:20.488Z,3.67
2023-01-09T15:31:03.099Z,3.00
2023-01-09T15:32:35.267Z,3.20
2023-01-09T15:34:15.635Z,2.90
2023-01-09T15:35:51.054Z,3.00
2023-01-09T15:37:27.671Z,3.15
2023-01-09T15:39:00.033Z,3.70
2023-01-09T15:40:34.374Z,2.90
2023-01-09T15:42:39.264Z,3.20
2023-01-09T15:44:16.083Z,3.70
2023-01-09T15:45:48.801Z,3.28
2023-01-09T15:47:23.960Z,2.95
2023-01-09T15:48:55.873Z,3.20
2023-01-09T15:50:29.605Z,3.20
2023-01-09T15:52:02.422Z,3.50
2023-01-09T15:53:34.560Z,3.70
2023-01-09T15:55:24.951Z,3.58
2023-01-09T15:57:30.249Z,3.08
2023-01-09T15:59:02.015Z,3.60
2023-01-09T16:00:41.426Z,3.38
2023-01-09T16:02:33.299Z,3.30
2023-01-09T16:04:08.254Z,3.42
2023-01-09T16:05:43.690Z,3.53
2023-01-09T16:07:18.526Z,3.35
2023-01-09T16:08:53.759Z,3.40
2023-01-09T16:10:30.356Z,3.53
2023-01-09T16:12:03.955Z,3.50
2023-01-09T16:13:43.283Z,3.60
2023-01-09T16:15:18.081Z,3.22
2023-01-09T16:16:52.053Z,3.78
2023-01-09T16:18:30.177Z,3.28
2023-01-09T16:20:13.999Z,4.72
2023-01-09T16:21:56.923Z,3.80
2023-01-09T16:23:31.303Z,3.67
2023-01-09T16:25:25.280Z,3.47
2023-01-09T16:27:21.291Z,3.50
2023-01-09T16:28:53.430Z,3.83
2023-01-09T16:30:26.991Z,3.92
2023-01-09T16:32:00.575Z,3.83
2023-01-09T16:33:32.690Z,3.40
2023-01-09T16:35:07.512Z,3.97
2023-01-09T16:36:39.197Z,3.63
2023-01-09T16:38:14.371Z,3.75
2023-01-09T16:40:16.700Z,4.20
2023-01-09T16:42:07.096Z,3.45
2023-01-09T16:43:38.892Z,3.83
2023-01-09T16:45:11.175Z,3.75
2023-01-09T16:46:44.501Z,3.50
2023-01-09T16:48:21.163Z,3.70
2023-01-09T16:49:52.842Z,3.88
2023-01-09T16:51:25.761Z,3.95
2023-01-09T16:52:57.665Z,4.03
2023-01-09T16:54:31.010Z,4.10
2023-01-09T16:56:02.882Z,4.00
2023-01-09T16:57:35.243Z,3.80
2023-01-09T16:59:12.071Z,3.90
2023-01-09T17:00:44.039Z,4.05
2023-01-09T17:02:18.333Z,5.63
2023-01-09T17:03:50.693Z,3.80
2023-01-09T17:05:22.463Z,5.15
2023-01-09T17:06:54.151Z,4.25
2023-01-09T17:08:28.495Z,3.85
2023-01-09T17:10:02.163Z,3.70
2023-01-09T17:11:34.000Z,3.47
2023-01-09T17:13:06.737Z,4.32
2023-01-09T17:14:38.369Z,3.60
2023-01-09T17:16:11.018Z,3.97
2023-01-09T17:17:42.695Z,3.47
2023-01-09T17:19:18.226Z,3.80
2023-01-09T17:20:52.226Z,3.72
2023-01-09T17:22:23.926Z,4.00
2023-01-09T17:24:14.307Z,4.25
2023-01-09T17:26:07.767Z,4.03
2023-01-09T17:27:58.414Z,3.97
2023-01-09T17:29:30.432Z,4.10
2023-01-09T17:31:05.772Z,4.45
2023-01-09T17:32:37.516Z,3.72
2023-01-09T17:34:09.444Z,3.83
2023-01-09T17:35:41.881Z,3.75
2023-01-09T17:37:15.391Z,3.92
2023-01-09T17:38:47.302Z,4.20
2023-01-09T17:40:20.595Z,3.55
2023-01-09T17:41:53.691Z,4.03
2023-01-09T17:43:25.407Z,4.10
2023-01-09T17:44:58.368Z,3.92
2023-01-09T17:46:32.718Z,4.07
2023-01-09T17:48:04.889Z,4.20
2023-01-09T17:49:36.536Z,4.10
2023-01-09T17:51:09.433Z,3.50
2023-01-09T17:52:41.174Z,4.28
2023-01-09T17:54:13.288Z,4.07
2023-01-09T17:55:44.960Z,3.95
2023-01-09T17:57:18.349Z,4.20
2023-01-09T17:58:52.880Z,3.70
2023-01-09T18:00:28.104Z,4.45
2023-01-09T18:01:59.854Z,4.13
2023-01-09T18:03:33.544Z,4.35
2023-01-09T18:05:06.073Z,4.20
2023-01-09T18:06:37.943Z,3.95
2023-01-09T18:08:12.730Z,4.60
2023-01-09T18:09:44.763Z,4.30
2023-01-09T18:11:19.204Z,3.92
2023-01-09T18:12:53.944Z,4.20
2023-01-09T18:14:25.646Z,3.92
2023-01-09T18:15:57.491Z,3.90
2023-01-09T18:17:29.201Z,3.75
2023-01-09T18:19:01.748Z,4.10
2023-01-09T18:20:35.836Z,3.88
2023-01-09T18:22:07.516Z,4.00
2023-01-09T18:23:39.188Z,3.88
2023-01-09T18:25:11.020Z,4.03
2023-01-09T18:26:42.754Z,4.15
2023-01-09T18:28:16.108Z,4.15
2023-01-09T18:29:47.767Z,4.18
2023-01-09T18:31:23.427Z,4.20
2023-01-09T18:32:55.115Z,3.85
2023-01-09T18:34:26.847Z,4.03
2023-01-09T18:36:08.681Z,4.00
2023-01-09T18:37:40.320Z,4.35
2023-01-09T18:39:12.240Z,4.90
2023-01-09T18:40:44.038Z,4.15
2023-01-09T18:42:15.764Z,4.30
2023-01-09T18:43:50.309Z,4.20
2023-01-09T18:45:22.183Z,4.18
2023-01-09T18:46:54.452Z,3.83
2023-01-09T18:48:26.692Z,4.43
2023-01-09T18:49:58.333Z,4.80
2023-01-09T18:51:33.960Z,4.40
2023-01-09T18:53:06.400Z,4.45
2023-01-09T18:54:38.423Z,4.53
2023-01-09T18:56:10.158Z,5.15
2023-01-09T18:57:41.897Z,4.90
2023-01-09T18:59:14.885Z,4.47
2023-01-09T19:00:46.670Z,4.50
2023-01-09T19:02:20.581Z,4.03
2023-01-09T19:03:52.416Z,4.22
2023-01-09T19:05:25.933Z,4.38
2023-01-09T19:06:59.429Z,4.82
2023-01-09T19:08:32.247Z,4.70
2023-01-09T19:10:04.587Z,4.80
2023-01-09T19:11:36.289Z,5.35
2023-01-09T19:13:08.045Z,4.53
2023-01-09T19:14:41.100Z,4.53
2023-01-09T19:16:12.989Z,4.68
2023-01-09T19:17:44.680Z,4.80
2023-01-09T19:19:16.425Z,4.53
2023-01-09T19:20:48.118Z,5.05
2023-01-09T19:22:19.802Z,4.85
2023-01-09T19:23:51.479Z,5.07
2023-01-09T19:25:23.365Z,5.30
2023-01-09T19:26:55.156Z,5.90
2023-01-09T19:28:26.850Z,5.65
2023-01-09T19:30:00.090Z,5.22
2023-01-09T19:31:32.477Z,5.05
2023-01-09T19:33:04.399Z,6.00
2023-01-09T19:34:36.127Z,5.57
2023-01-09T19:36:08.256Z,5.22
2023-01-09T19:37:39.996Z,5.97
2023-01-09T19:39:11.780Z,5.65
2023-01-09T19:40:43.424Z,5.80
2023-01-09T19:42:16.330Z,6.05
2023-01-09T19:43:48.551Z,6.10
2023-01-09T19:45:21.655Z,6.13
2023-01-09T19:46:53.443Z,6.18
2023-01-09T19:48:27.430Z,6.00
2023-01-09T19:49:59.089Z,6.25
2023-01-09T19:51:32.488Z,6.03
2023-01-09T19:53:04.182Z,6.13
2023-01-09T19:54:36.314Z,5.90
2023-01-09T19:56:10.794Z,5.72
2023-01-09T19:57:43.423Z,5.80
2023-01-09T19:59:15.874Z,5.95
2023-01-09T20:00:49.340Z,5.75
2023-01-09T20:03:54.048Z,6.20
2023-01-09T20:05:26.068Z,6.47
2023-01-09T20:06:57.947Z,5.68
2023-01-09T20:08:29.632Z,5.95
2023-01-09T20:10:01.432Z,6.13
2023-01-09T20:11:37.076Z,6.07
2023-01-09T20:13:12.568Z,6.05
2023-01-09T20:14:45.230Z,5.80
2023-01-09T20:16:20.257Z,6.05
2023-01-09T20:17:52.990Z,5.40
2023-01-09T20:19:24.650Z,6.55
2023-01-09T20:20:59.097Z,5.78
2023-01-09T20:22:30.758Z,6.07
2023-01-09T20:24:05.191Z,6.10
2023-01-09T20:25:36.943Z,6.13
2023-01-09T20:27:09.684Z,5.93
2023-01-09T20:28:41.430Z,6.22
2023-01-09T20:30:14.168Z,6.38
2023-01-09T20:31:47.293Z,6.18
2023-01-09T20:33:20.529Z,6.20
2023-01-09T20:34:52.360Z,6.55
2023-01-09T20:36:29.047Z,6.18
2023-01-09T20:38:00.778Z,6.38
2023-01-09T20:39:35.532Z,6.47
2023-01-09T20:41:08.478Z,6.20
2023-01-09T20:42:43.313Z,6.80
2023-01-09T20:44:15.789Z,6.03
2023-01-09T20:45:47.613Z,6.07
2023-01-09T20:47:22.097Z,5.65
2023-01-09T20:48:55.256Z,5.82
2023-01-09T20:50:26.975Z,5.30
2023-01-09T20:51:58.715Z,4.72
2023-01-09T20:53:30.399Z,4.90
2023-01-09T20:55:02.041Z,4.90
2023-01-09T20:56:33.793Z,4.78
2023-01-09T20:58:05.494Z,4.93
2023-01-09T20:59:37.367Z,5.07
2023-01-09T21:01:11.238Z,4.57
2023-01-09T21:02:44.313Z,4.38
2023-01-09T21:04:17.762Z,4.95
2023-01-09T21:05:49.510Z,4.45
2023-01-09T21:07:23.261Z,4.32
2023-01-09T21:08:54.984Z,4.75
2023-01-09T21:10:26.660Z,3.95
2023-01-09T21:11:58.307Z,4.40
2023-01-09T21:13:30.311Z,4.20
2023-01-09T21:15:05.043Z,4.05
2023-01-09T21:16:36.840Z,3.95
2023-01-09T21:18:09.912Z,4.15